Time;durP1;ratioP1;P1;durP2;ratioP2;P2;SDS_P1;SDS_P2;PMS_P1;PMS_P2;Temp;Humidity;BMP_temperature;BMP_pressure;BME280_temperature;BME280_humidity;BME280_pressure;Samples;Min_cycle;Max_cycle;Signal;HPM_P1;HPM_P2
2023/04/21 00:02:51;;;;;;;8.07;7.37;;;11.50;41.30;;;;;;10336674;28;20226;-69
2023/04/21 00:07:54;;;;;;;8.90;8.13;;;11.50;41.30;;;;;;10331725;28;20769;-69
2023/04/21 00:12:59;;;;;;;9.33;8.53;;;11.50;41.30;;;;;;10331503;28;20802;-69
2023/04/21 00:18:02;;;;;;;8.77;8.00;;;11.50;41.30;;;;;;10332872;28;20230;-70
2023/04/21 00:23:05;;;;;;;9.83;9.03;;;11.40;41.20;;;;;;10328980;28;20221;-70
2023/04/21 00:28:10;;;;;;;7.67;7.07;;;11.40;41.20;;;;;;10331450;28;20238;-70
2023/04/21 00:33:13;;;;;;;9.20;8.40;;;11.30;41.10;;;;;;10336552;28;20231;-70
2023/04/21 00:38:16;;;;;;;6.97;6.37;;;11.30;41.10;;;;;;10328110;28;20722;-70
2023/04/21 00:43:21;;;;;;;8.77;8.07;;;11.30;41.10;;;;;;10336823;28;20219;-68
2023/04/21 00:48:24;;;;;;;9.30;8.57;;;11.40;41.20;;;;;;10329203;28;20230;-68
2023/04/21 00:53:27;;;;;;;8.63;7.83;;;11.40;41.20;;;;;;10337348;28;20234;-69
2023/04/21 00:58:33;;;;;;;8.53;7.83;;;11.40;41.20;;;;;;10332824;28;20294;-69
2023/04/21 01:03:36;;;;;;;9.13;8.33;;;11.30;41.10;;;;;;10329352;28;20230;-68
2023/04/21 01:08:40;;;;;;;9.77;8.97;;;11.30;41.10;;;;;;10332285;28;20606;-69
2023/04/21 01:13:45;;;;;;;9.27;8.47;;;11.30;41.10;;;;;;10332630;28;20238;-69
2023/04/21 01:18:48;;;;;;;8.20;7.50;;;11.30;41.10;;;;;;10332184;28;20234;-68
2023/04/21 01:23:53;;;;;;;9.13;8.33;;;11.20;41.00;;;;;;10334987;28;20235;-69
2023/04/21 01:28:57;;;;;;;8.77;8.07;;;11.20;41.00;;;;;;10338137;28;20223;-69
2023/04/21 01:34:04;;;;;;;9.93;9.13;;;11.10;41.20;;;;;;10335725;28;20223;-69
2023/04/21 01:39:08;;;;;;;8.93;8.13;;;11.10;41.60;;;;;;10336970;28;20234;-70
2023/04/21 01:44:11;;;;;;;8.37;7.67;;;11.20;41.70;;;;;;10339020;28;20218;-69
2023/04/21 01:49:14;;;;;;;9.40;8.60;;;11.20;41.30;;;;;;10343253;28;20802;-69
2023/04/21 01:54:19;;;;;;;8.90;8.03;;;11.10;41.50;;;;;;10339027;28;20237;-69
2023/04/21 01:59:22;;;;;;;9.23;8.47;;;11.10;41.60;;;;;;10334966;28;20234;-69
2023/04/21 02:04:25;;;;;;;9.43;8.53;;;11.10;41.40;;;;;;10340037;28;20231;-69
2023/04/21 02:09:31;;;;;;;7.97;7.27;;;11.10;41.60;;;;;;10338447;28;20239;-69
2023/04/21 02:14:34;;;;;;;10.10;9.23;;;11.10;41.80;;;;;;10339100;28;20230;-69
2023/04/21 02:19:37;;;;;;;10.00;9.00;;;11.10;41.50;;;;;;10339628;28;20242;-69
2023/04/21 02:24:42;;;;;;;10.67;9.77;;;11.10;41.30;;;;;;10337495;28;20235;-69
2023/04/21 02:29:45;;;;;;;9.80;8.90;;;11.00;41.30;;;;;;10337051;28;20237;-69
2023/04/21 02:34:48;;;;;;;10.33;9.43;;;10.90;41.30;;;;;;10333674;28;20844;-70
2023/04/21 02:39:53;;;;;;;9.00;8.00;;;10.80;41.40;;;;;;10338828;28;20656;-69
2023/04/21 02:44:56;;;;;;;10.70;9.80;;;10.80;41.90;;;;;;10338775;28;20238;-69
2023/04/21 02:49:59;;;;;;;9.43;8.63;;;10.70;42.00;;;;;;10332189;28;20602;-69
2023/04/21 02:55:04;;;;;;;9.73;8.93;;;10.70;42.00;;;;;;10339188;28;20594;-70
2023/04/21 03:00:11;;;;;;;10.13;9.23;;;10.70;42.10;;;;;;10334010;28;20711;-72
2023/04/21 03:05:14;;;;;;;10.53;9.43;;;10.70;42.20;;;;;;10335074;28;20222;-69
2023/04/21 03:10:19;;;;;;;8.37;7.67;;;10.70;42.20;;;;;;10331178;28;20726;-69
2023/04/21 03:15:22;;;;;;;10.40;9.47;;;10.70;42.40;;;;;;10334728;28;20238;-70
2023/04/21 03:20:25;;;;;;;7.73;7.03;;;10.80;42.40;;;;;;10335668;28;20617;-69
2023/04/21 03:25:30;;;;;;;10.27;9.37;;;10.80;42.40;;;;;;10337182;28;20258;-69
2023/04/21 03:30:33;;;;;;;9.17;8.40;;;10.80;42.60;;;;;;10336232;28;20241;-69
2023/04/21 03:35:36;;;;;;;9.20;8.50;;;10.90;42.50;;;;;;10331136;28;20235;-69
2023/04/21 03:40:41;;;;;;;10.10;9.20;;;10.90;42.50;;;;;;10329657;28;20230;-69
2023/04/21 03:45:44;;;;;;;9.00;8.23;;;11.00;43.30;;;;;;10332356;28;20601;-69
2023/04/21 03:50:47;;;;;;;9.63;8.83;;;11.00;42.30;;;;;;10325878;28;20227;-69
2023/04/21 03:55:52;;;;;;;10.33;9.50;;;11.00;42.20;;;;;;10330940;28;20234;-69
2023/04/21 04:00:55;;;;;;;10.17;9.17;;;11.00;42.30;;;;;;10332233;28;20876;-69
2023/04/21 04:05:58;;;;;;;10.30;9.40;;;11.00;42.30;;;;;;10336262;28;20230;-69
2023/04/21 04:11:02;;;;;;;10.27;9.37;;;11.00;42.30;;;;;;10334393;28;20222;-69
2023/04/21 04:16:07;;;;;;;11.20;10.20;;;11.00;42.50;;;;;;10333044;28;20237;-68
2023/04/21 04:21:10;;;;;;;15.43;13.93;;;10.90;42.20;;;;;;10331129;28;20244;-71
2023/04/21 04:26:14;;;;;;;12.03;10.97;;;10.90;42.10;;;;;;10327912;28;20253;-69
2023/04/21 04:31:18;;;;;;;11.33;10.33;;;10.80;42.30;;;;;;10332307;28;20227;-68
2023/04/21 04:36:21;;;;;;;11.83;10.77;;;10.80;42.50;;;;;;10331043;28;20275;-69
2023/04/21 04:41:26;;;;;;;10.93;9.90;;;10.80;42.70;;;;;;10329229;28;20696;-68
2023/04/21 04:46:29;;;;;;;10.77;9.87;;;10.80;43.00;;;;;;10327244;28;20618;-68
2023/04/21 04:51:32;;;;;;;9.23;8.33;;;10.90;42.90;;;;;;10329136;28;20235;-69
2023/04/21 04:56:37;;;;;;;10.10;9.30;;;10.90;42.80;;;;;;10342548;28;20241;-71
2023/04/21 05:01:41;;;;;;;10.57;9.67;;;10.90;42.90;;;;;;10339329;28;20235;-67
2023/04/21 05:06:44;;;;;;;11.93;10.83;;;10.90;42.70;;;;;;10339698;28;20265;-68
2023/04/21 05:11:48;;;;;;;27.30;24.10;;;10.90;42.70;;;;;;10343190;28;20227;-69
2023/04/21 05:16:52;;;;;;;17.13;15.37;;;11.00;43.00;;;;;;10341734;28;20243;-68
2023/04/21 05:21:59;;;;;;;14.47;13.07;;;10.90;42.90;;;;;;10342504;28;20322;-68
2023/04/21 05:27:04;;;;;;;13.67;12.30;;;11.00;43.40;;;;;;10334627;28;20702;-68
2023/04/21 05:32:07;;;;;;;13.70;12.50;;;11.00;43.30;;;;;;10341699;28;20219;-68
2023/04/21 05:37:11;;;;;;;12.33;11.13;;;11.00;43.10;;;;;;10341711;28;20234;-67
2023/04/21 05:42:17;;;;;;;13.37;12.17;;;11.00;43.20;;;;;;10339881;28;20230;-67
2023/04/21 05:47:20;;;;;;;12.90;11.77;;;11.10;43.60;;;;;;10337601;28;20293;-68
2023/04/21 05:52:23;;;;;;;12.47;11.47;;;11.10;43.30;;;;;;10342130;28;20285;-67
2023/04/21 05:57:27;;;;;;;11.33;10.33;;;11.10;43.40;;;;;;10338145;28;20608;-67
2023/04/21 06:02:31;;;;;;;12.97;11.87;;;11.10;43.60;;;;;;10334725;28;20237;-67
2023/04/21 06:07:37;;;;;;;11.53;10.47;;;11.10;43.50;;;;;;10334537;28;20242;-68
2023/04/21 06:12:41;;;;;;;12.47;11.30;;;11.20;43.90;;;;;;10339014;28;20239;-67
2023/04/21 06:17:44;;;;;;;12.10;10.93;;;11.20;44.00;;;;;;10332646;28;20238;-68
2023/04/21 06:22:47;;;;;;;12.60;11.37;;;11.30;43.80;;;;;;10332034;28;20944;-68
2023/04/21 06:27:52;;;;;;;13.27;11.97;;;11.30;43.80;;;;;;10335042;28;20306;-68
2023/04/21 06:32:55;;;;;;;13.73;12.53;;;11.40;43.90;;;;;;10337572;28;20230;-67
2023/04/21 06:37:58;;;;;;;13.30;12.03;;;11.40;43.80;;;;;;10336946;28;20218;-68
2023/04/21 06:43:03;;;;;;;10.40;9.50;;;11.50;43.80;;;;;;10336072;28;20222;-68
2023/04/21 06:48:06;;;;;;;13.77;12.37;;;11.50;43.90;;;;;;10336548;28;20285;-68
2023/04/21 06:53:10;;;;;;;12.10;11.00;;;11.60;43.90;;;;;;10337077;28;20337;-68
2023/04/21 06:58:14;;;;;;;12.50;11.30;;;11.60;44.00;;;;;;10332212;28;20723;-68
2023/04/21 07:03:18;;;;;;;12.83;11.73;;;11.70;44.00;;;;;;10332938;28;20596;-68
2023/04/21 07:08:21;;;;;;;14.53;13.13;;;11.80;43.90;;;;;;10335373;28;20276;-68
2023/04/21 07:13:25;;;;;;;13.23;12.03;;;11.80;43.80;;;;;;10332252;28;20233;-68
2023/04/21 07:18:29;;;;;;;14.87;13.47;;;11.80;43.90;;;;;;10335294;28;20230;-68
2023/04/21 07:23:32;;;;;;;14.57;13.17;;;11.90;44.00;;;;;;10334668;28;20264;-68
2023/04/21 07:28:37;;;;;;;13.70;12.50;;;12.00;44.20;;;;;;10334785;28;20226;-68
2023/04/21 07:33:40;;;;;;;14.90;13.50;;;12.10;44.40;;;;;;10336314;28;20699;-68
2023/04/21 07:38:43;;;;;;;15.43;13.93;;;12.20;44.20;;;;;;10334590;28;20246;-70
2023/04/21 07:43:48;;;;;;;16.23;14.73;;;12.40;44.20;;;;;;10334849;28;20229;-68
2023/04/21 07:48:53;;;;;;;15.70;14.30;;;12.50;44.10;;;;;;10334439;28;20227;-68
2023/04/21 07:53:56;;;;;;;15.60;14.07;;;12.60;44.30;;;;;;10334401;28;20230;-68
2023/04/21 07:59:03;;;;;;;15.17;13.77;;;12.80;44.70;;;;;;10333353;28;20230;-68
2023/04/21 08:04:07;;;;;;;16.20;14.60;;;13.00;45.00;;;;;;10331719;28;20223;-68
2023/04/21 08:09:10;;;;;;;14.97;13.57;;;13.20;45.10;;;;;;10333696;28;20337;-68
2023/04/21 08:14:15;;;;;;;15.40;14.00;;;13.50;45.00;;;;;;10335469;28;20226;-68
2023/04/21 08:19:18;;;;;;;15.90;14.40;;;13.70;44.60;;;;;;10336316;28;20231;-68
2023/04/21 08:24:22;;;;;;;16.00;14.57;;;14.00;44.80;;;;;;10336877;28;20712;-68
2023/04/21 08:29:26;;;;;;;16.27;14.80;;;14.30;44.70;;;;;;10338130;28;20249;-68
2023/04/21 08:34:30;;;;;;;15.90;14.40;;;14.50;44.60;;;;;;10340232;28;20620;-67
2023/04/21 08:39:33;;;;;;;14.07;12.87;;;14.70;44.10;;;;;;10342046;28;20249;-67
2023/04/21 08:44:40;;;;;;;15.67;14.17;;;15.00;44.30;;;;;;10340275;28;20231;-68
2023/04/21 08:49:44;;;;;;;14.93;13.53;;;15.20;43.60;;;;;;10338262;28;20752;-67
2023/04/21 08:54:50;;;;;;;14.57;13.30;;;15.30;43.50;;;;;;10342213;28;20227;-68
2023/04/21 08:59:55;;;;;;;14.13;12.83;;;15.60;44.00;;;;;;10342284;28;20226;-67
2023/04/21 09:04:58;;;;;;;14.57;13.17;;;15.80;43.30;;;;;;10341552;28;20890;-68
2023/04/21 09:10:02;;;;;;;14.03;12.73;;;16.00;43.40;;;;;;10342305;28;20927;-68
2023/04/21 09:15:10;;;;;;;13.03;11.93;;;16.20;43.20;;;;;;10344507;28;20271;-68
2023/04/21 09:20:15;;;;;;;13.83;12.63;;;16.50;42.30;;;;;;10337962;28;20222;-68
2023/04/21 09:25:20;;;;;;;12.53;11.47;;;16.60;42.30;;;;;;10339176;28;20215;-68
2023/04/21 09:30:25;;;;;;;13.17;11.97;;;16.80;41.80;;;;;;10339575;28;20226;-68
2023/04/21 09:35:29;;;;;;;12.13;11.03;;;16.90;42.00;;;;;;10339234;28;20234;-68
2023/04/21 09:40:33;;;;;;;11.10;10.20;;;17.10;42.10;;;;;;10336817;28;20226;-68
2023/04/21 09:45:38;;;;;;;11.03;10.13;;;17.20;41.90;;;;;;10340066;28;20232;-68
2023/04/21 09:50:43;;;;;;;9.93;9.07;;;17.40;41.60;;;;;;10342431;28;20269;-68
2023/04/21 09:55:51;;;;;;;11.20;10.30;;;17.60;42.10;;;;;;10334210;28;20683;-68
2023/04/21 10:00:57;;;;;;;11.50;10.50;;;17.80;41.00;;;;;;10336477;28;20231;-68
2023/04/21 10:06:01;;;;;;;11.93;10.93;;;18.00;40.80;;;;;;10335838;28;20231;-68
2023/04/21 10:11:05;;;;;;;11.77;10.77;;;18.10;40.90;;;;;;10335371;28;20218;-68
2023/04/21 10:16:10;;;;;;;10.47;9.57;;;18.20;40.60;;;;;;10338862;28;20226;-68
2023/04/21 10:21:20;;;;;;;11.10;10.20;;;18.40;40.10;;;;;;10332571;28;20234;-68
2023/04/21 10:26:25;;;;;;;11.57;10.57;;;18.50;39.80;;;;;;10337210;28;20280;-68
2023/04/21 10:31:35;;;;;;;12.10;11.00;;;18.60;40.30;;;;;;10335138;28;20226;-68
2023/04/21 10:36:47;;;;;;;9.10;8.40;;;18.80;39.50;;;;;;10333042;28;20234;-69
2023/04/21 10:41:50;;;;;;;9.93;9.13;;;19.00;39.80;;;;;;10335435;28;20230;-69
2023/04/21 10:46:55;;;;;;;9.83;9.03;;;19.10;40.60;;;;;;10336430;28;20258;-69
2023/04/21 10:52:07;;;;;;;11.47;10.47;;;19.30;39.80;;;;;;10337501;28;20225;-67
2023/04/21 10:57:12;;;;;;;10.97;9.93;;;19.50;38.40;;;;;;10335658;28;20254;-68
2023/04/21 11:02:18;;;;;;;9.03;8.30;;;19.60;39.40;;;;;;10335788;28;20222;-68
2023/04/21 11:07:22;;;;;;;8.43;7.73;;;19.60;38.60;;;;;;10335146;28;20242;-68
2023/04/21 11:12:29;;;;;;;8.37;7.67;;;19.80;38.80;;;;;;10330818;28;20237;-68
2023/04/21 11:17:34;;;;;;;7.40;6.80;;;19.80;38.20;;;;;;10332827;28;20238;-68
2023/04/21 11:22:38;;;;;;;7.87;7.27;;;19.90;38.20;;;;;;10336716;28;20625;-68
2023/04/21 11:27:41;;;;;;;7.13;6.63;;;20.00;37.90;;;;;;10334201;28;20247;-68
2023/04/21 11:32:47;;;;;;;7.67;7.07;;;20.10;38.00;;;;;;10335424;28;20719;-68
2023/04/21 11:37:51;;;;;;;6.40;5.90;;;20.10;37.20;;;;;;10331669;28;20633;-68
2023/04/21 11:42:54;;;;;;;6.67;6.17;;;20.20;37.80;;;;;;10332941;28;20309;-68
2023/04/21 11:53:29;;;;;;;6.57;6.07;;;20.40;38.10;;;;;;10493813;27;20572;-68
2023/04/21 11:58:32;;;;;;;5.60;5.20;;;20.50;36.80;;;;;;10487670;27;20235;-69
2023/04/21 12:03:35;;;;;;;6.53;5.47;;;20.50;36.90;;;;;;10496745;27;20640;-69
2023/04/21 12:08:40;;;;;;;4.70;4.40;;;20.50;36.90;;;;;;10483740;27;20723;-69
2023/04/21 12:13:45;;;;;;;4.60;4.30;;;20.60;36.50;;;;;;10494064;27;20230;-69
2023/04/21 12:18:49;;;;;;;4.50;4.10;;;20.70;36.80;;;;;;10485695;27;20243;-69
2023/04/21 12:23:53;;;;;;;3.90;3.60;;;20.80;36.50;;;;;;10488782;28;20223;-69
2023/04/21 12:28:59;;;;;;;4.23;3.93;;;20.80;36.10;;;;;;10478143;27;20228;-69
2023/04/21 12:34:02;;;;;;;4.90;4.50;;;20.90;36.60;;;;;;10487946;27;21017;-70
2023/04/21 12:39:07;;;;;;;4.27;3.97;;;21.00;36.10;;;;;;10488553;27;20594;-69
2023/04/21 12:44:10;;;;;;;5.17;4.77;;;21.10;36.00;;;;;;10489449;27;20228;-69
2023/04/21 12:49:14;;;;;;;4.47;4.13;;;21.10;36.10;;;;;;10488281;27;20255;-69
2023/04/21 12:54:19;;;;;;;4.80;4.40;;;21.20;36.00;;;;;;10493213;27;20633;-69
2023/04/21 12:59:22;;;;;;;3.93;3.67;;;21.30;35.30;;;;;;10490703;27;20243;-67
2023/04/21 13:04:25;;;;;;;3.77;3.47;;;21.40;36.00;;;;;;10472609;28;20252;-70
2023/04/21 13:09:31;;;;;;;3.33;3.03;;;21.50;35.70;;;;;;10470128;28;20311;-70
2023/04/21 13:14:34;;;;;;;2.83;2.60;;;21.60;34.00;;;;;;10468153;28;20220;-70
2023/04/21 13:19:37;;;;;;;2.43;2.27;;;21.70;34.20;;;;;;10469262;28;20247;-68
2023/04/21 13:24:42;;;;;;;2.10;2.00;;;21.80;33.90;;;;;;10462809;28;20319;-68
2023/04/21 13:29:46;;;;;;;2.10;2.00;;;21.80;32.60;;;;;;10458713;28;20239;-68
2023/04/21 13:34:49;;;;;;;2.00;1.87;;;21.90;33.20;;;;;;10464152;28;20651;-70
2023/04/21 13:39:54;;;;;;;2.00;1.90;;;22.00;32.80;;;;;;10454852;28;20767;-69
2023/04/21 13:44:57;;;;;;;1.80;1.70;;;22.00;32.40;;;;;;10470157;28;20227;-70
2023/04/21 13:50:00;;;;;;;2.00;1.90;;;22.00;32.60;;;;;;10458434;28;20238;-70
2023/04/21 13:55:06;;;;;;;1.80;1.70;;;22.10;32.60;;;;;;10459342;28;20216;-71
2023/04/21 14:00:10;;;;;;;2.40;2.30;;;22.20;31.50;;;;;;10448785;28;20316;-71
2023/04/21 14:05:14;;;;;;;2.30;2.20;;;22.30;32.00;;;;;;10458997;28;20232;-70
2023/04/21 14:10:19;;;;;;;2.20;2.00;;;22.30;32.20;;;;;;10458845;28;20696;-70
2023/04/21 14:15:22;;;;;;;2.10;2.00;;;22.40;31.40;;;;;;10457272;28;20229;-70
2023/04/21 14:20:25;;;;;;;1.70;1.60;;;22.40;32.00;;;;;;10456887;28;20225;-70
2023/04/21 14:25:30;;;;;;;1.60;1.50;;;22.50;31.10;;;;;;10461984;28;20227;-70
2023/04/21 14:30:34;;;;;;;1.93;1.80;;;22.60;29.70;;;;;;10465590;28;20236;-69
2023/04/21 14:35:37;;;;;;;1.97;1.87;;;22.60;30.00;;;;;;10459494;28;20327;-70
2023/04/21 14:40:42;;;;;;;1.77;1.67;;;22.60;30.10;;;;;;10463322;28;20240;-70
2023/04/21 14:45:45;;;;;;;2.07;1.80;;;22.50;29.70;;;;;;10460192;28;20224;-70
2023/04/21 14:50:48;;;;;;;1.50;1.50;;;22.60;30.10;;;;;;10457523;28;20294;-70
2023/04/21 14:55:53;;;;;;;1.40;1.40;;;22.60;29.90;;;;;;10456455;28;20242;-70
2023/04/21 15:00:57;;;;;;;1.63;1.53;;;22.60;28.80;;;;;;10459740;28;20235;-70
2023/04/21 15:06:00;;;;;;;1.73;1.63;;;22.70;29.40;;;;;;10457832;28;20302;-70
2023/04/21 15:11:05;;;;;;;1.83;1.73;;;22.70;29.20;;;;;;10461208;28;20238;-71
2023/04/21 15:16:08;;;;;;;1.57;1.47;;;22.70;28.50;;;;;;10460123;28;20235;-70
2023/04/21 15:21:11;;;;;;;1.80;1.70;;;22.70;29.30;;;;;;10454532;28;20236;-71
2023/04/21 15:26:16;;;;;;;1.77;1.67;;;22.70;29.10;;;;;;10457894;28;20597;-70
2023/04/21 15:31:19;;;;;;;1.40;1.30;;;22.70;28.70;;;;;;10456342;28;20235;-70
2023/04/21 15:36:22;;;;;;;1.60;1.50;;;22.80;29.00;;;;;;10458052;28;20319;-69
2023/04/21 15:41:28;;;;;;;1.77;1.67;;;22.90;28.80;;;;;;10453944;28;20231;-70
2023/04/21 15:46:33;;;;;;;1.60;1.60;;;22.80;28.20;;;;;;10458259;28;20739;-70
2023/04/21 15:51:36;;;;;;;2.00;1.90;;;22.80;28.50;;;;;;10456911;28;20225;-70
2023/04/21 15:56:41;;;;;;;1.57;1.47;;;22.80;28.30;;;;;;10458567;28;23173;-70
2023/04/21 16:01:44;;;;;;;1.60;1.50;;;22.70;27.50;;;;;;10455267;28;20251;-70
2023/04/21 16:06:47;;;;;;;1.60;1.50;;;22.70;28.00;;;;;;10458614;28;20318;-70
2023/04/21 16:11:52;;;;;;;2.30;1.50;;;22.60;28.00;;;;;;10456435;28;20219;-67
2023/04/21 16:16:55;;;;;;;1.50;1.40;;;22.60;27.40;;;;;;10458216;28;20251;-69
2023/04/21 16:21:58;;;;;;;1.43;1.40;;;22.60;27.90;;;;;;10452960;28;20228;-68
2023/04/21 16:27:03;;;;;;;1.47;1.37;;;22.60;27.90;;;;;;10460646;28;20297;-69
2023/04/21 16:32:07;;;;;;;1.77;1.40;;;22.60;27.10;;;;;;10457948;28;20246;-70
2023/04/21 16:37:10;;;;;;;1.70;1.60;;;22.60;27.50;;;;;;10458677;28;20938;-70
2023/04/21 16:42:15;;;;;;;1.63;1.53;;;22.60;27.50;;;;;;10459989;28;20228;-70
2023/04/21 16:47:18;;;;;;;1.80;1.47;;;22.60;27.10;;;;;;10461016;28;20228;-70
2023/04/21 16:52:21;;;;;;;1.50;1.40;;;22.60;27.50;;;;;;10460742;28;20308;-70
2023/04/21 16:57:28;;;;;;;1.70;1.60;;;22.60;27.20;;;;;;10464454;28;20228;-70
2023/04/21 17:02:31;;;;;;;1.73;1.63;;;22.70;27.10;;;;;;10460996;28;20250;-69
2023/04/21 17:07:35;;;;;;;2.00;1.90;;;22.70;27.10;;;;;;10458388;28;20228;-69
2023/04/21 17:12:39;;;;;;;1.90;1.80;;;22.80;27.20;;;;;;10466307;28;20232;-69
2023/04/21 17:17:45;;;;;;;1.87;1.70;;;22.80;27.20;;;;;;10457753;28;20237;-69
2023/04/21 17:22:49;;;;;;;1.87;1.77;;;22.80;26.70;;;;;;10461461;28;20220;-69
2023/04/21 17:27:53;;;;;;;2.23;2.00;;;22.70;27.10;;;;;;10455520;28;20228;-69
2023/04/21 17:32:57;;;;;;;2.70;2.50;;;22.60;26.30;;;;;;10462653;28;20219;-69
2023/04/21 17:38:18;;;;;;;2.43;2.23;;;22.60;27.10;;;;;;10464408;28;20251;-69
2023/04/21 17:43:23;;;;;;;2.70;2.47;;;22.50;27.00;;;;;;10457615;28;20231;-69
2023/04/21 17:48:26;;;;;;;2.50;2.30;;;22.40;26.50;;;;;;10456917;28;20227;-70
2023/04/21 17:53:29;;;;;;;2.50;2.30;;;22.40;26.90;;;;;;10457103;28;20278;-70
2023/04/21 17:58:34;;;;;;;2.73;2.20;;;22.40;26.90;;;;;;10455575;28;20278;-70
2023/04/21 18:03:39;;;;;;;2.20;2.10;;;22.30;26.90;;;;;;10459596;28;20225;-70
2023/04/21 18:08:43;;;;;;;1.73;1.63;;;22.30;26.90;;;;;;10454094;28;20256;-70
2023/04/21 18:13:48;;;;;;;2.80;2.37;;;22.20;27.10;;;;;;10459654;28;20229;-70
2023/04/21 18:18:51;;;;;;;4.97;2.80;;;22.10;26.70;;;;;;10454398;28;20830;-69
2023/04/21 18:23:54;;;;;;;3.90;3.60;;;22.10;27.00;;;;;;10458838;28;20243;-69
2023/04/21 18:29:01;;;;;;;3.47;3.20;;;22.00;27.10;;;;;;10457665;28;20700;-69
2023/04/21 18:34:05;;;;;;;2.97;2.77;;;21.80;26.90;;;;;;10461673;28;20227;-69
2023/04/21 18:39:09;;;;;;;2.50;2.30;;;21.70;27.30;;;;;;10460551;28;20616;-69
2023/04/21 18:44:13;;;;;;;2.30;2.10;;;21.50;27.30;;;;;;10455057;28;20592;-69
2023/04/21 18:49:16;;;;;;;2.33;2.20;;;21.40;27.50;;;;;;10460543;28;20237;-69
2023/04/21 18:54:19;;;;;;;4.20;3.87;;;21.30;27.60;;;;;;10458516;28;20587;-69
2023/04/21 18:59:24;;;;;;;3.40;3.20;;;21.10;27.50;;;;;;10456279;28;20247;-69
2023/04/21 19:04:27;;;;;;;3.20;3.00;;;20.90;27.20;;;;;;10456307;28;20747;-69
2023/04/21 19:09:31;;;;;;;3.40;2.33;;;20.80;27.80;;;;;;10467862;28;20896;-69
2023/04/21 19:14:36;;;;;;;3.63;2.27;;;20.60;27.80;;;;;;10470198;28;20232;-70
2023/04/21 19:19:49;;;;;;;16.50;14.83;;;20.50;27.80;;;;;;10465058;28;20227;-69
2023/04/21 19:24:54;;;;;;;10.40;9.40;;;20.30;27.80;;;;;;10463232;28;20235;-69
2023/04/21 19:29:59;;;;;;;8.53;6.73;;;20.10;27.90;;;;;;10463292;28;20224;-69
2023/04/21 19:35:03;;;;;;;7.43;6.73;;;20.00;27.80;;;;;;10465324;28;20339;-70
2023/04/21 19:40:08;;;;;;;4.20;3.53;;;19.80;28.10;;;;;;10460804;28;20244;-69
2023/04/21 19:45:13;;;;;;;3.57;3.27;;;19.60;28.30;;;;;;10443039;28;20232;-69
2023/04/21 19:50:16;;;;;;;3.63;3.33;;;19.40;28.30;;;;;;10448195;28;20233;-69
2023/04/21 19:55:19;;;;;;;8.50;7.70;;;19.20;28.30;;;;;;10449731;28;20771;-69
2023/04/21 20:00:24;;;;;;;5.10;4.63;;;19.10;28.40;;;;;;10448735;28;20243;-68
2023/04/21 20:05:27;;;;;;;3.90;3.60;;;19.00;28.40;;;;;;10452366;28;20235;-68
2023/04/21 20:10:31;;;;;;;3.83;3.43;;;18.80;28.30;;;;;;10444642;28;20242;-69
2023/04/21 20:15:35;;;;;;;7.50;6.00;;;18.60;28.50;;;;;;10462957;28;20290;-68
2023/04/21 20:20:39;;;;;;;13.37;12.07;;;18.40;28.80;;;;;;10453812;28;20233;-68
2023/04/21 20:25:42;;;;;;;7.03;5.80;;;18.20;28.70;;;;;;10464649;28;20224;-69
2023/04/21 20:30:47;;;;;;;5.17;4.20;;;18.10;28.80;;;;;;10458035;28;20247;-69
2023/04/21 20:35:51;;;;;;;5.20;4.70;;;17.90;29.00;;;;;;10456973;28;21002;-68
2023/04/21 20:40:55;;;;;;;6.67;5.10;;;17.70;29.10;;;;;;10458784;28;20228;-68
2023/04/21 20:46:00;;;;;;;7.17;6.40;;;17.40;29.20;;;;;;10455840;28;20282;-68
2023/04/21 20:51:04;;;;;;;8.73;7.00;;;17.20;29.80;;;;;;10460585;28;20227;-68
2023/04/21 20:56:07;;;;;;;5.30;4.80;;;17.10;29.90;;;;;;10456428;28;20898;-69
2023/04/21 21:01:12;;;;;;;4.93;4.53;;;17.00;30.00;;;;;;10453702;28;20255;-69
2023/04/21 21:06:15;;;;;;;3.97;3.67;;;17.00;30.20;;;;;;10464254;28;20299;-68
2023/04/21 21:11:20;;;;;;;5.50;3.40;;;17.00;30.20;;;;;;10460645;28;20235;-69
2023/04/21 21:16:24;;;;;;;4.20;3.80;;;17.00;30.20;;;;;;10467993;28;20225;-69
2023/04/21 21:21:28;;;;;;;4.07;3.67;;;16.90;30.60;;;;;;10462435;28;20246;-68
2023/04/21 21:26:31;;;;;;;4.83;4.43;;;16.90;30.40;;;;;;10461915;28;20240;-68
2023/04/21 21:31:35;;;;;;;5.00;3.60;;;16.90;30.40;;;;;;10460768;28;20235;-69
2023/04/21 21:36:38;;;;;;;4.33;4.00;;;16.90;30.50;;;;;;10462491;28;20236;-69
2023/04/21 21:41:42;;;;;;;4.70;4.30;;;16.90;30.40;;;;;;10463882;28;20233;-68
2023/04/21 21:46:47;;;;;;;4.07;3.73;;;16.90;30.50;;;;;;10448714;28;20230;-69
2023/04/21 21:51:51;;;;;;;4.30;4.00;;;16.80;30.70;;;;;;10459805;28;20221;-69
2023/04/21 21:56:55;;;;;;;4.30;3.90;;;16.80;30.60;;;;;;10465125;28;20259;-68
2023/04/21 22:01:59;;;;;;;4.67;4.07;;;16.70;30.30;;;;;;10454465;28;20258;-67
2023/04/21 22:07:03;;;;;;;4.40;4.00;;;16.50;30.30;;;;;;10454746;28;20313;-69
2023/04/21 22:12:07;;;;;;;3.63;3.33;;;16.40;30.40;;;;;;10460208;28;20220;-69
2023/04/21 22:17:11;;;;;;;4.60;3.20;;;16.30;30.70;;;;;;10460962;28;20229;-67
2023/04/21 22:22:15;;;;;;;4.00;3.70;;;16.20;31.10;;;;;;10454781;28;20594;-68
2023/04/21 22:27:18;;;;;;;4.63;4.23;;;16.20;31.10;;;;;;10457838;28;20651;-68
2023/04/21 22:32:22;;;;;;;4.37;4.03;;;16.20;31.20;;;;;;10454897;28;20594;-68
2023/04/21 22:37:25;;;;;;;4.30;3.97;;;16.10;31.40;;;;;;10458318;28;20730;-68
2023/04/21 22:42:29;;;;;;;4.77;4.37;;;16.10;31.10;;;;;;10452074;28;20247;-68
2023/04/21 22:47:37;;;;;;;5.10;4.57;;;16.10;31.10;;;;;;10458173;28;20750;-68
2023/04/21 22:52:40;;;;;;;4.30;3.77;;;16.00;31.40;;;;;;10461147;28;20746;-68
2023/04/21 22:57:44;;;;;;;9.30;4.97;;;16.00;31.10;;;;;;10456772;28;20228;-67
2023/04/21 23:02:48;;;;;;;10.87;6.00;;;15.80;31.10;;;;;;10456485;28;20231;-68
2023/04/21 23:07:52;;;;;;;12.77;6.93;;;15.70;31.40;;;;;;10454672;28;20713;-68
2023/04/21 23:12:55;;;;;;;8.63;6.17;;;15.60;31.40;;;;;;10459157;28;20231;-68
2023/04/21 23:17:59;;;;;;;6.93;5.50;;;15.60;32.30;;;;;;10445506;28;20261;-68
2023/04/21 23:23:03;;;;;;;6.03;4.27;;;15.50;32.00;;;;;;10458965;28;20235;-69
2023/04/21 23:28:06;;;;;;;4.87;4.10;;;15.50;31.70;;;;;;10456924;28;20235;-68
2023/04/21 23:33:11;;;;;;;3.90;3.60;;;15.40;31.80;;;;;;10457017;28;20225;-68
2023/04/21 23:38:14;;;;;;;3.53;3.23;;;15.40;32.40;;;;;;10457200;28;20232;-68
2023/04/21 23:43:17;;;;;;;3.43;3.13;;;15.40;32.10;;;;;;10459440;28;20225;-68
2023/04/21 23:48:22;;;;;;;4.13;3.70;;;15.30;31.90;;;;;;10458684;28;20232;-68
2023/04/21 23:53:25;;;;;;;3.87;3.57;;;15.20;31.90;;;;;;10458861;28;20244;-68
2023/04/21 23:58:28;;;;;;;3.60;2.87;;;15.10;32.10;;;;;;10454517;28;20238;-68
